createdAt,value
2023-03-04T00:00:20.841Z,6.30
2023-03-04T00:05:14.990Z,6.30
2023-03-04T00:07:41.747Z,6.20
2023-03-04T00:10:09.245Z,6.20
2023-03-04T00:12:36.015Z,6.20
2023-03-04T00:15:03.325Z,6.50
2023-03-04T00:17:31.538Z,6.10
2023-03-04T00:19:58.958Z,6.10
2023-03-04T00:27:20.217Z,6.00
2023-03-04T00:29:47.084Z,5.90
2023-03-04T00:32:13.967Z,5.90
2023-03-04T00:39:38.694Z,5.80
2023-03-04T00:49:27.909Z,5.80
2023-03-04T00:51:54.711Z,5.70
2023-03-04T01:04:10.486Z,5.60
2023-03-04T01:06:37.611Z,5.70
2023-03-04T01:11:32.779Z,5.60
2023-03-04T01:13:59.623Z,5.60
2023-03-04T01:18:54.442Z,5.50
2023-03-04T01:26:15.874Z,5.50
2023-03-04T01:31:09.999Z,5.40
2023-03-04T01:36:04.553Z,5.40
2023-03-04T01:38:31.557Z,5.30
2023-03-04T01:43:28.361Z,5.30
2023-03-04T01:45:56.434Z,5.30
2023-03-04T01:48:31.327Z,5.30
2023-03-04T01:50:59.527Z,5.20
2023-03-04T01:53:28.746Z,5.20
2023-03-04T01:56:00.906Z,5.20
2023-03-04T01:58:31.774Z,5.10
2023-03-04T02:00:59.357Z,5.10
2023-03-04T02:03:26.922Z,5.10
2023-03-04T02:05:55.522Z,5.10
2023-03-04T02:08:25.051Z,5.10
2023-03-04T02:10:53.532Z,5.10
2023-03-04T02:18:24.173Z,5.10
2023-03-04T02:21:08.718Z,5.10
2023-03-04T02:23:53.197Z,5.10
2023-03-04T02:26:22.977Z,5.10
2023-03-04T02:28:53.602Z,5.20
2023-03-04T02:31:32.960Z,5.20
2023-03-04T02:34:06.461Z,5.20
2023-03-04T02:36:34.555Z,5.20
2023-03-04T02:39:11.777Z,5.30
2023-03-04T02:41:39.059Z,5.30
2023-03-04T02:44:20.402Z,5.30
2023-03-04T02:46:48.187Z,5.30
2023-03-04T02:54:21.182Z,5.30
2023-03-04T02:56:50.280Z,5.40
2023-03-04T02:59:18.266Z,5.40
2023-03-04T03:04:13.788Z,5.40
2023-03-04T03:16:32.595Z,5.60
2023-03-04T03:18:59.474Z,5.70
2023-03-04T03:21:26.286Z,5.70
2023-03-04T03:28:48.013Z,5.70
2023-03-04T03:36:13.871Z,5.80
2023-03-04T03:38:40.743Z,5.80
2023-03-04T03:41:07.728Z,5.80
2023-03-04T03:46:01.804Z,5.60
2023-03-04T03:48:28.721Z,5.70
2023-03-04T03:55:50.063Z,5.60
2023-03-04T03:58:16.846Z,5.60
2023-03-04T04:03:17.049Z,5.60
2023-03-04T04:05:44.206Z,5.60
2023-03-04T04:08:15.484Z,5.60
2023-03-04T04:10:43.076Z,5.60
2023-03-04T04:13:10.182Z,5.60
2023-03-04T04:18:07.078Z,5.70
2023-03-04T04:20:34.281Z,5.60
2023-03-04T04:23:01.833Z,5.70
2023-03-04T04:25:28.691Z,5.70
2023-03-04T04:30:23.668Z,5.70
2023-03-04T04:32:50.975Z,5.80
2023-03-04T04:35:17.870Z,5.70
2023-03-04T04:45:07.721Z,5.80
2023-03-04T04:47:34.473Z,5.80
2023-03-04T04:57:23.028Z,5.90
2023-03-04T05:07:11.840Z,6.00
2023-03-04T05:12:06.296Z,6.00
2023-03-04T05:17:00.468Z,6.10
2023-03-04T05:21:54.517Z,6.10
2023-03-04T05:24:21.727Z,6.00
2023-03-04T05:31:44.110Z,6.00
2023-03-04T05:46:27.103Z,6.10
2023-03-04T05:48:54.500Z,6.10
2023-03-04T05:51:22.626Z,6.10
2023-03-04T05:53:50.036Z,6.10
2023-03-04T05:56:18.909Z,6.10
2023-03-04T06:03:43.847Z,6.20
2023-03-04T06:06:11.262Z,6.20
2023-03-04T06:08:38.120Z,6.20
2023-03-04T06:11:05.651Z,6.20
2023-03-04T06:13:33.490Z,6.20
2023-03-04T06:18:28.921Z,6.20
2023-03-04T06:21:00.897Z,6.20
2023-03-04T06:23:28.356Z,6.20
2023-03-04T06:25:56.586Z,6.20
2023-03-04T06:28:23.826Z,6.30
2023-03-04T06:30:54.720Z,6.30
2023-03-04T06:35:49.395Z,6.30
2023-03-04T06:38:16.264Z,6.40
2023-03-04T06:40:44.257Z,6.40
2023-03-04T06:43:11.034Z,6.40
2023-03-04T06:45:39.392Z,6.40
2023-03-04T06:48:06.500Z,6.40
2023-03-04T06:50:33.292Z,6.40
2023-03-04T06:53:00.043Z,6.50
2023-03-04T06:55:26.920Z,6.50
2023-03-04T07:00:21.234Z,6.50
2023-03-04T07:02:48.055Z,6.50
2023-03-04T07:07:42.477Z,6.60
2023-03-04T07:10:10.288Z,6.60
2023-03-04T07:12:37.089Z,6.60
2023-03-04T07:15:04.262Z,6.60
2023-03-04T07:19:58.306Z,6.60
2023-03-04T07:22:25.638Z,6.60
2023-03-04T07:29:47.310Z,6.70
2023-03-04T07:32:14.169Z,6.70
2023-03-04T07:34:40.963Z,6.70
2023-03-04T07:39:34.976Z,6.80
2023-03-04T07:42:01.748Z,6.80
2023-03-04T07:44:28.639Z,6.80
2023-03-04T07:54:20.074Z,7.00
2023-03-04T07:56:47.354Z,7.00
2023-03-04T07:59:14.305Z,7.00
2023-03-04T08:01:45.592Z,7.00
2023-03-04T08:04:12.773Z,7.10
2023-03-04T08:06:41.371Z,7.10
2023-03-04T08:09:10.670Z,7.20
2023-03-04T08:11:38.450Z,7.20
2023-03-04T08:14:06.327Z,7.20
2023-03-04T08:16:33.178Z,7.20
2023-03-04T08:19:02.315Z,7.20
2023-03-04T08:21:29.510Z,7.30
2023-03-04T08:23:59.607Z,7.30
2023-03-04T08:26:29.754Z,7.30
2023-03-04T08:31:24.662Z,7.40
2023-03-04T08:33:53.012Z,7.40
2023-03-04T08:36:20.375Z,7.40
2023-03-04T08:41:15.430Z,7.50
2023-03-04T08:43:42.459Z,7.50
2023-03-04T08:46:09.380Z,7.50
2023-03-04T08:48:37.771Z,7.50
2023-03-04T08:51:10.096Z,7.50
2023-03-04T08:53:38.201Z,7.60
2023-03-04T08:56:05.933Z,7.60
2023-03-04T08:58:32.901Z,7.70
2023-03-04T09:01:01.200Z,7.70
2023-03-04T09:03:28.652Z,7.70
2023-03-04T09:05:56.282Z,7.80
2023-03-04T09:08:23.122Z,7.80
2023-03-04T09:10:52.885Z,7.80
2023-03-04T09:13:19.706Z,3.80
2023-03-04T09:15:48.372Z,7.90
2023-03-04T09:18:16.340Z,7.90
2023-03-04T09:20:43.300Z,7.90
2023-03-04T09:23:10.455Z,8.00
2023-03-04T09:25:38.399Z,8.00
2023-03-04T09:28:06.396Z,8.00
2023-03-04T09:30:34.240Z,8.10
2023-03-04T09:33:01.558Z,8.10
2023-03-04T09:35:29.961Z,8.20
2023-03-04T09:37:58.104Z,6.70
2023-03-04T09:40:30.097Z,8.20
2023-03-04T09:43:03.389Z,8.20
2023-03-04T09:45:41.819Z,8.30
2023-03-04T09:48:15.195Z,8.30
2023-03-04T09:51:09.153Z,8.40
2023-03-04T09:53:48.092Z,8.40
2023-03-04T09:56:15.231Z,8.40
2023-03-04T09:59:02.392Z,8.50
2023-03-04T10:01:34.228Z,8.60
2023-03-04T10:04:20.726Z,9.10
2023-03-04T10:06:54.439Z,8.70
2023-03-04T10:09:29.875Z,8.70
2023-03-04T10:12:06.601Z,8.70
2023-03-04T10:14:38.628Z,8.80
2023-03-04T10:17:18.877Z,8.80
2023-03-04T10:20:06.008Z,8.90
2023-03-04T10:22:37.426Z,8.90
2023-03-04T10:25:24.411Z,9.70
2023-03-04T10:27:59.170Z,8.90
2023-03-04T10:30:38.306Z,9.00
2023-03-04T10:33:27.518Z,9.00
2023-03-04T10:36:01.845Z,9.10
2023-03-04T10:38:39.129Z,9.00
2023-03-04T10:41:16.736Z,9.10
2023-03-04T10:43:49.662Z,10.40
2023-03-04T10:46:16.669Z,9.10
2023-03-04T10:48:44.839Z,9.10
2023-03-04T10:51:11.687Z,9.10
2023-03-04T10:53:41.816Z,9.20
2023-03-04T10:56:33.702Z,9.20
2023-03-04T10:59:31.763Z,9.20
2023-03-04T11:02:13.534Z,9.20
2023-03-04T11:04:40.657Z,9.30
2023-03-04T11:07:11.521Z,9.40
2023-03-04T11:09:40.422Z,9.40
2023-03-04T11:12:13.441Z,9.40
2023-03-04T11:14:49.108Z,9.50
2023-03-04T11:17:40.682Z,9.50
2023-03-04T11:20:16.412Z,9.50
2023-03-04T11:22:46.195Z,9.50
2023-03-04T11:25:27.399Z,9.50
2023-03-04T11:27:58.132Z,9.50
2023-03-04T11:30:36.687Z,9.50
2023-03-04T11:33:32.617Z,9.50
2023-03-04T11:36:28.800Z,9.50
2023-03-04T11:38:57.058Z,9.40
2023-03-04T11:41:32.241Z,9.40
2023-03-04T11:44:00.371Z,9.70
2023-03-04T11:46:59.930Z,9.40
2023-03-04T11:49:47.997Z,9.40
2023-03-04T11:52:33.470Z,9.40
2023-03-04T11:55:35.231Z,9.40
2023-03-04T11:58:26.516Z,9.30
2023-03-04T12:01:10.533Z,9.30
2023-03-04T12:03:55.634Z,9.40
2023-03-04T12:06:31.542Z,9.30
2023-03-04T12:08:58.269Z,9.30
2023-03-04T12:11:49.242Z,9.30
2023-03-04T12:14:37.637Z,9.40
2023-03-04T12:17:23.404Z,9.30
2023-03-04T12:20:24.567Z,9.40
2023-03-04T12:22:54.492Z,9.40
2023-03-04T12:25:42.154Z,9.40
2023-03-04T12:28:37.585Z,9.40
2023-03-04T12:31:19.744Z,9.40
2023-03-04T12:34:06.415Z,9.30
2023-03-04T12:36:51.913Z,9.40
2023-03-04T12:39:48.209Z,9.40
2023-03-04T12:42:49.258Z,9.40
2023-03-04T12:45:25.806Z,9.40
2023-03-04T12:48:05.879Z,9.40
2023-03-04T12:50:46.814Z,9.60
2023-03-04T12:53:34.302Z,9.40
2023-03-04T12:56:04.707Z,9.30
2023-03-04T12:58:33.810Z,9.30
2023-03-04T13:01:07.606Z,9.30
2023-03-04T13:03:58.519Z,9.40
2023-03-04T13:06:43.734Z,9.30
2023-03-04T13:09:32.040Z,9.30
2023-03-04T13:12:20.375Z,9.40
2023-03-04T13:15:07.415Z,9.40
2023-03-04T13:17:44.176Z,9.40
2023-03-04T13:20:36.296Z,9.40
2023-03-04T13:23:07.087Z,9.40
2023-03-04T13:25:40.252Z,9.50
2023-03-04T13:28:09.901Z,9.40
2023-03-04T13:30:38.066Z,9.50
2023-03-04T13:33:10.840Z,9.40
2023-03-04T13:35:47.935Z,9.40
2023-03-04T13:38:25.300Z,9.50
2023-03-04T13:41:16.873Z,9.50
2023-03-04T13:43:55.145Z,9.50
2023-03-04T13:46:24.825Z,9.50
2023-03-04T13:48:51.763Z,9.50
2023-03-04T13:51:41.603Z,9.50
2023-03-04T13:54:28.643Z,9.50
2023-03-04T13:57:01.421Z,9.60
2023-03-04T13:59:42.974Z,9.60
2023-03-04T14:02:20.019Z,9.70
2023-03-04T14:04:57.419Z,9.90
2023-03-04T14:07:33.117Z,10.00
2023-03-04T14:10:07.645Z,9.80
2023-03-04T14:12:48.874Z,9.90
2023-03-04T14:15:42.135Z,9.90
2023-03-04T14:18:12.222Z,12.00
2023-03-04T14:20:48.341Z,10.00
2023-03-04T14:23:35.961Z,10.10
2023-03-04T14:26:14.752Z,10.40
2023-03-04T14:28:45.470Z,10.10
2023-03-04T14:31:18.395Z,10.20
2023-03-04T14:33:48.431Z,10.20
2023-03-04T14:36:21.777Z,10.10
2023-03-04T14:38:58.898Z,11.10
2023-03-04T14:41:35.532Z,10.20
2023-03-04T14:44:29.073Z,10.20
2023-03-04T14:47:07.843Z,10.20
2023-03-04T14:49:37.182Z,10.20
2023-03-04T14:52:04.647Z,12.50
2023-03-04T14:54:38.667Z,10.20
2023-03-04T14:57:26.748Z,10.20
2023-03-04T14:59:54.164Z,10.10
2023-03-04T15:02:35.637Z,10.40
2023-03-04T15:05:16.865Z,10.10
2023-03-04T15:07:49.570Z,10.00
2023-03-04T15:10:22.352Z,10.10
2023-03-04T15:12:55.208Z,10.00
2023-03-04T15:15:34.038Z,9.90
2023-03-04T15:18:15.487Z,9.90
2023-03-04T15:20:42.423Z,9.90
2023-03-04T15:23:14.102Z,9.80
2023-03-04T15:25:40.969Z,9.80
2023-03-04T15:28:16.714Z,9.80
2023-03-04T15:30:43.647Z,9.70
2023-03-04T15:33:12.094Z,10.10
2023-03-04T15:35:39.930Z,9.70
2023-03-04T15:38:07.851Z,9.60
2023-03-04T15:40:39.151Z,10.20
2023-03-04T15:43:06.766Z,9.50
2023-03-04T15:45:36.953Z,9.50
2023-03-04T15:48:08.011Z,9.50
2023-03-04T15:50:38.386Z,9.50
2023-03-04T15:53:10.514Z,9.40
2023-03-04T15:55:37.515Z,9.40
2023-03-04T15:58:04.627Z,9.40
2023-03-04T16:00:32.152Z,7.20
2023-03-04T16:02:59.076Z,9.70
2023-03-04T16:05:26.306Z,9.40
2023-03-04T16:07:53.706Z,10.30
2023-03-04T16:10:30.813Z,9.30
2023-03-04T16:12:58.044Z,9.30
2023-03-04T16:15:27.487Z,9.30
2023-03-04T16:17:54.838Z,9.30
2023-03-04T16:20:24.796Z,9.30
2023-03-04T16:22:55.172Z,11.70
2023-03-04T16:25:23.230Z,9.30
2023-03-04T16:27:52.270Z,9.30
2023-03-04T16:30:25.121Z,9.30
2023-03-04T16:32:52.029Z,9.30
2023-03-04T16:35:20.587Z,9.30
2023-03-04T16:37:47.834Z,9.30
2023-03-04T16:40:19.394Z,9.20
2023-03-04T16:42:46.334Z,9.20
2023-03-04T16:45:31.720Z,9.20
2023-03-04T16:47:58.520Z,9.20
2023-03-04T16:50:28.649Z,9.20
2023-03-04T16:52:56.647Z,9.20
2023-03-04T16:55:28.918Z,9.10
2023-03-04T16:57:57.894Z,9.20
2023-03-04T17:00:27.008Z,9.10
2023-03-04T17:02:59.756Z,9.10
2023-03-04T17:05:29.924Z,9.40
2023-03-04T17:07:57.379Z,9.10
2023-03-04T17:10:24.865Z,9.10
2023-03-04T17:12:52.267Z,9.10
2023-03-04T17:15:19.489Z,9.10
2023-03-04T17:17:46.761Z,9.10
2023-03-04T17:20:16.334Z,9.10
2023-03-04T17:22:43.865Z,5.60
2023-03-04T17:25:12.861Z,9.10
2023-03-04T17:27:40.264Z,9.10
2023-03-04T17:30:11.134Z,9.20
2023-03-04T17:32:40.065Z,9.10
2023-03-04T17:35:08.595Z,9.10
2023-03-04T17:37:36.161Z,9.10
2023-03-04T17:40:08.700Z,9.10
2023-03-04T17:42:35.666Z,9.10
2023-03-04T17:45:02.650Z,9.80
2023-03-04T17:47:29.633Z,9.20
2023-03-04T17:49:56.485Z,9.20
2023-03-04T17:52:23.250Z,9.20
2023-03-04T17:54:50.044Z,9.20
2023-03-04T17:57:16.926Z,9.20
2023-03-04T17:59:43.695Z,9.10
2023-03-04T18:02:16.852Z,10.30
2023-03-04T18:04:45.950Z,9.20
2023-03-04T18:07:13.114Z,9.20
2023-03-04T18:09:40.029Z,9.20
2023-03-04T18:12:07.226Z,9.20
2023-03-04T18:14:34.304Z,9.20
2023-03-04T18:17:01.121Z,9.60
2023-03-04T18:19:27.916Z,9.30
2023-03-04T18:21:54.724Z,9.30
2023-03-04T18:24:21.746Z,9.30
2023-03-04T18:26:48.933Z,9.30
2023-03-04T18:29:16.102Z,11.90
2023-03-04T18:31:43.734Z,9.30
2023-03-04T18:34:11.333Z,9.30
2023-03-04T18:36:38.189Z,9.30
2023-03-04T18:39:07.426Z,9.30
2023-03-04T18:41:34.714Z,9.30
2023-03-04T18:44:01.682Z,9.30
2023-03-04T18:46:36.110Z,9.30
2023-03-04T18:49:06.048Z,9.30
2023-03-04T18:51:34.165Z,9.30
2023-03-04T18:54:01.600Z,9.30
2023-03-04T18:56:38.168Z,9.30
2023-03-04T18:59:10.132Z,9.40
2023-03-04T19:01:37.442Z,10.40
2023-03-04T19:04:05.699Z,9.40
2023-03-04T19:06:33.828Z,9.40
2023-03-04T19:09:01.271Z,9.40
2023-03-04T19:11:29.949Z,9.50
2023-03-04T19:13:57.129Z,9.40
2023-03-04T19:16:24.995Z,9.40
2023-03-04T19:18:53.512Z,9.40
2023-03-04T19:21:20.378Z,9.40
2023-03-04T19:23:47.217Z,9.40
2023-03-04T19:26:15.392Z,9.40
2023-03-04T19:28:42.624Z,9.40
2023-03-04T19:31:11.307Z,9.40
2023-03-04T19:33:39.629Z,9.40
2023-03-04T19:36:07.471Z,9.40
2023-03-04T19:38:35.372Z,9.40
2023-03-04T19:41:13.965Z,9.40
2023-03-04T19:43:41.248Z,9.40
2023-03-04T19:46:10.307Z,9.40
2023-03-04T19:48:38.010Z,9.70
2023-03-04T19:51:12.917Z,9.30
2023-03-04T19:53:39.989Z,9.30
2023-03-04T19:56:07.772Z,9.30
2023-03-04T19:58:35.243Z,9.30
2023-03-04T20:01:02.427Z,9.30
2023-03-04T20:03:29.568Z,9.30
2023-03-04T20:06:07.528Z,9.30
2023-03-04T20:08:37.935Z,9.30
2023-03-04T20:11:12.429Z,11.90
2023-03-04T20:13:39.248Z,9.30
2023-03-04T20:16:11.046Z,9.30
2023-03-04T20:18:38.711Z,9.30
2023-03-04T20:21:06.558Z,9.30
2023-03-04T20:23:33.740Z,9.30
2023-03-04T20:26:00.989Z,9.30
2023-03-04T20:28:28.314Z,9.30
2023-03-04T20:31:12.898Z,9.30
2023-03-04T20:33:39.770Z,9.20
2023-03-04T20:36:06.811Z,9.20
2023-03-04T20:38:33.825Z,9.20
2023-03-04T20:41:00.674Z,9.30
2023-03-04T20:43:28.698Z,9.20
2023-03-04T20:45:55.628Z,9.30
2023-03-04T20:48:22.762Z,9.20
2023-03-04T20:50:49.546Z,11.80
2023-03-04T20:53:16.354Z,9.30
2023-03-04T20:55:43.174Z,10.30
2023-03-04T20:58:10.229Z,9.30
2023-03-04T21:00:38.295Z,13.30
2023-03-04T21:03:05.151Z,9.30
2023-03-04T21:05:32.070Z,9.30
2023-03-04T21:07:59.277Z,9.30
2023-03-04T21:10:26.172Z,9.30
2023-03-04T21:12:53.154Z,9.30
2023-03-04T21:15:19.975Z,9.30
2023-03-04T21:17:46.929Z,9.30
2023-03-04T21:20:15.167Z,9.40
2023-03-04T21:22:41.993Z,9.30
2023-03-04T21:25:09.196Z,9.30
2023-03-04T21:27:42.475Z,9.30
2023-03-04T21:30:11.150Z,9.30
2023-03-04T21:32:38.161Z,9.30
2023-03-04T21:35:05.728Z,10.90
2023-03-04T21:37:32.730Z,9.40
2023-03-04T21:40:01.388Z,9.40
2023-03-04T21:42:28.378Z,9.40
2023-03-04T21:44:55.310Z,9.40
2023-03-04T21:47:22.422Z,11.90
2023-03-04T21:49:49.371Z,9.40
2023-03-04T21:52:18.716Z,9.40
2023-03-04T21:54:45.841Z,9.40
2023-03-04T21:57:14.235Z,9.50
2023-03-04T21:59:41.535Z,9.50
2023-03-04T22:02:20.782Z,9.40
2023-03-04T22:04:48.312Z,9.50
2023-03-04T22:07:15.225Z,9.50
2023-03-04T22:09:42.179Z,9.50
2023-03-04T22:12:09.276Z,9.40
2023-03-04T22:14:36.183Z,9.40
2023-03-04T22:17:03.186Z,9.50
2023-03-04T22:19:32.738Z,9.50
2023-03-04T22:21:59.850Z,9.40
2023-03-04T22:24:27.512Z,12.50
2023-03-04T22:26:56.806Z,9.40
2023-03-04T22:29:23.790Z,9.50
2023-03-04T22:31:51.090Z,10.80
2023-03-04T22:34:18.662Z,9.40
2023-03-04T22:36:47.084Z,9.40
2023-03-04T22:39:16.905Z,9.40
2023-03-04T22:41:43.780Z,9.40
2023-03-04T22:44:10.777Z,10.10
2023-03-04T22:46:39.152Z,9.40
2023-03-04T22:49:11.988Z,9.90
2023-03-04T22:51:43.686Z,10.70
2023-03-04T22:54:18.565Z,9.60
2023-03-04T22:56:45.833Z,9.40
2023-03-04T22:59:13.113Z,10.30
2023-03-04T23:01:40.227Z,9.50
2023-03-04T23:04:07.205Z,9.30
2023-03-04T23:06:34.252Z,9.30
2023-03-04T23:09:01.092Z,9.30
2023-03-04T23:11:30.877Z,9.30
2023-03-04T23:14:02.104Z,9.30
2023-03-04T23:16:29.082Z,9.30
2023-03-04T23:18:59.184Z,9.20
2023-03-04T23:21:28.202Z,9.20
2023-03-04T23:23:55.166Z,9.10
2023-03-04T23:26:24.741Z,9.20
2023-03-04T23:28:51.912Z,11.60
2023-03-04T23:31:18.962Z,10.20
2023-03-04T23:33:47.668Z,9.20
2023-03-04T23:36:16.874Z,9.20
2023-03-04T23:38:45.589Z,9.20
2023-03-04T23:41:21.275Z,10.80
2023-03-04T23:43:49.003Z,9.20
2023-03-04T23:46:15.958Z,9.20
2023-03-04T23:48:46.346Z,9.20
2023-03-04T23:51:20.362Z,12.00
2023-03-04T23:53:47.888Z,11.40
2023-03-04T23:56:17.233Z,9.80
2023-03-04T23:58:44.989Z,9.20
